sensor_id;sensor_type;location;lat;lon;timestamp;pressure;altitude;pressure_sealevel;temperature;humidity
15489;BME280;7846;48.830;9.116;2023-04-07T00:00:11;97870.00;;;10.81;67.00
15489;BME280;7846;48.830;9.116;2023-04-07T00:02:55;97866.75;;;10.87;66.61
15489;BME280;7846;48.830;9.116;2023-04-07T00:05:40;97866.75;;;10.87;66.46
15489;BME280;7846;48.830;9.116;2023-04-07T00:08:24;97862.09;;;10.81;66.52
15489;BME280;7846;48.830;9.116;2023-04-07T00:11:09;97854.66;;;10.69;67.09
15489;BME280;7846;48.830;9.116;2023-04-07T00:13:53;97856.13;;;10.71;67.22
15489;BME280;7846;48.830;9.116;2023-04-07T00:16:37;97859.66;;;10.88;66.73
15489;BME280;7846;48.830;9.116;2023-04-07T00:19:22;97852.47;;;10.98;65.88
15489;BME280;7846;48.830;9.116;2023-04-07T00:22:06;97854.56;;;10.86;65.82
15489;BME280;7846;48.830;9.116;2023-04-07T00:24:50;97849.13;;;10.88;66.47
15489;BME280;7846;48.830;9.116;2023-04-07T00:27:34;97849.16;;;10.96;66.16
15489;BME280;7846;48.830;9.116;2023-04-07T00:30:19;97844.38;;;10.92;66.24
15489;BME280;7846;48.830;9.116;2023-04-07T00:33:03;97843.91;;;11.04;66.41
15489;BME280;7846;48.830;9.116;2023-04-07T00:35:48;97841.06;;;10.89;66.68
15489;BME280;7846;48.830;9.116;2023-04-07T00:38:32;97829.97;;;10.70;67.39
15489;BME280;7846;48.830;9.116;2023-04-07T00:41:16;97830.22;;;10.93;67.07
15489;BME280;7846;48.830;9.116;2023-04-07T00:44:00;97821.00;;;10.97;67.43
15489;BME280;7846;48.830;9.116;2023-04-07T00:46:46;97821.06;;;11.13;67.43
15489;BME280;7846;48.830;9.116;2023-04-07T00:49:30;97816.19;;;10.84;67.57
15489;BME280;7846;48.830;9.116;2023-04-07T00:52:14;97817.97;;;10.75;67.46
15489;BME280;7846;48.830;9.116;2023-04-07T00:54:59;97818.66;;;10.85;67.81
15489;BME280;7846;48.830;9.116;2023-04-07T00:57:43;97815.69;;;10.80;67.73
15489;BME280;7846;48.830;9.116;2023-04-07T01:00:30;97803.88;;;10.93;68.29
15489;BME280;7846;48.830;9.116;2023-04-07T01:03:18;97810.25;;;10.82;68.94
15489;BME280;7846;48.830;9.116;2023-04-07T01:06:05;97805.16;;;10.80;69.33
15489;BME280;7846;48.830;9.116;2023-04-07T01:09:04;97793.72;;;11.06;68.24
15489;BME280;7846;48.830;9.116;2023-04-07T01:12:04;97795.69;;;11.12;68.07
15489;BME280;7846;48.830;9.116;2023-04-07T01:14:51;97789.09;;;11.08;67.81
15489;BME280;7846;48.830;9.116;2023-04-07T01:17:44;97788.47;;;11.22;67.40
15489;BME280;7846;48.830;9.116;2023-04-07T01:20:31;97785.97;;;11.04;67.35
15489;BME280;7846;48.830;9.116;2023-04-07T01:24:00;97776.31;;;11.29;67.13
15489;BME280;7846;48.830;9.116;2023-04-07T01:26:40;97773.63;;;11.05;67.27
15489;BME280;7846;48.830;9.116;2023-04-07T01:29:27;97784.72;;;10.74;68.58
15489;BME280;7846;48.830;9.116;2023-04-07T01:32:17;97770.66;;;11.08;68.44
15489;BME280;7846;48.830;9.116;2023-04-07T01:35:03;97765.38;;;11.00;68.03
15489;BME280;7846;48.830;9.116;2023-04-07T01:37:49;97768.53;;;11.03;67.65
15489;BME280;7846;48.830;9.116;2023-04-07T01:40:43;97762.75;;;11.08;68.12
15489;BME280;7846;48.830;9.116;2023-04-07T01:43:29;97765.50;;;10.90;68.27
15489;BME280;7846;48.830;9.116;2023-04-07T01:46:15;97769.94;;;10.81;68.14
15489;BME280;7846;48.830;9.116;2023-04-07T01:49:00;97760.44;;;10.97;68.13
15489;BME280;7846;48.830;9.116;2023-04-07T01:51:45;97755.47;;;10.85;68.06
15489;BME280;7846;48.830;9.116;2023-04-07T01:54:33;97753.09;;;10.58;69.92
15489;BME280;7846;48.830;9.116;2023-04-07T01:57:18;97749.84;;;10.72;68.61
15489;BME280;7846;48.830;9.116;2023-04-07T02:00:02;97751.03;;;10.86;68.28
15489;BME280;7846;48.830;9.116;2023-04-07T02:02:51;97747.59;;;10.94;68.81
15489;BME280;7846;48.830;9.116;2023-04-07T02:05:37;97753.19;;;10.90;68.01
15489;BME280;7846;48.830;9.116;2023-04-07T02:08:25;97744.94;;;10.94;68.32
15489;BME280;7846;48.830;9.116;2023-04-07T02:11:11;97746.97;;;11.08;67.67
15489;BME280;7846;48.830;9.116;2023-04-07T02:13:56;97741.53;;;11.01;67.48
15489;BME280;7846;48.830;9.116;2023-04-07T02:16:41;97741.28;;;10.70;68.64
15489;BME280;7846;48.830;9.116;2023-04-07T02:19:26;97737.06;;;10.94;68.04
15489;BME280;7846;48.830;9.116;2023-04-07T02:22:14;97733.28;;;10.88;67.98
15489;BME280;7846;48.830;9.116;2023-04-07T02:24:59;97734.72;;;10.82;68.07
15489;BME280;7846;48.830;9.116;2023-04-07T02:27:43;97729.72;;;10.55;66.56
15489;BME280;7846;48.830;9.116;2023-04-07T02:30:27;97735.56;;;10.83;66.06
15489;BME280;7846;48.830;9.116;2023-04-07T02:33:11;97729.19;;;11.02;65.49
15489;BME280;7846;48.830;9.116;2023-04-07T02:35:55;97726.88;;;10.90;64.70
15489;BME280;7846;48.830;9.116;2023-04-07T02:38:40;97730.31;;;10.91;65.73
15489;BME280;7846;48.830;9.116;2023-04-07T02:41:24;97716.84;;;11.02;65.42
15489;BME280;7846;48.830;9.116;2023-04-07T02:44:09;97726.38;;;11.11;65.59
15489;BME280;7846;48.830;9.116;2023-04-07T02:46:53;97718.34;;;11.21;65.16
15489;BME280;7846;48.830;9.116;2023-04-07T02:49:37;97719.34;;;11.28;65.26
15489;BME280;7846;48.830;9.116;2023-04-07T02:52:21;97702.84;;;11.26;65.45
15489;BME280;7846;48.830;9.116;2023-04-07T02:55:05;97706.97;;;11.61;64.70
15489;BME280;7846;48.830;9.116;2023-04-07T02:57:49;97699.88;;;11.46;64.73
15489;BME280;7846;48.830;9.116;2023-04-07T03:00:34;97705.34;;;11.36;65.60
15489;BME280;7846;48.830;9.116;2023-04-07T03:03:17;97703.50;;;11.36;64.96
15489;BME280;7846;48.830;9.116;2023-04-07T03:06:01;97700.56;;;11.39;65.22
15489;BME280;7846;48.830;9.116;2023-04-07T03:08:45;97705.50;;;11.43;65.40
15489;BME280;7846;48.830;9.116;2023-04-07T03:11:29;97701.03;;;11.27;65.86
15489;BME280;7846;48.830;9.116;2023-04-07T03:14:13;97702.34;;;11.31;65.27
15489;BME280;7846;48.830;9.116;2023-04-07T03:16:57;97700.38;;;11.33;65.62
15489;BME280;7846;48.830;9.116;2023-04-07T03:19:41;97693.63;;;11.30;65.28
15489;BME280;7846;48.830;9.116;2023-04-07T03:22:25;97692.97;;;11.36;65.51
15489;BME280;7846;48.830;9.116;2023-04-07T03:25:09;97690.16;;;11.38;64.87
15489;BME280;7846;48.830;9.116;2023-04-07T03:27:53;97685.72;;;11.30;65.21
15489;BME280;7846;48.830;9.116;2023-04-07T03:30:37;97689.19;;;11.47;64.91
15489;BME280;7846;48.830;9.116;2023-04-07T03:33:21;97680.94;;;11.58;64.60
15489;BME280;7846;48.830;9.116;2023-04-07T03:36:05;97685.25;;;11.43;64.98
15489;BME280;7846;48.830;9.116;2023-04-07T03:38:50;97684.72;;;11.56;64.52
15489;BME280;7846;48.830;9.116;2023-04-07T03:41:34;97679.81;;;11.36;64.97
15489;BME280;7846;48.830;9.116;2023-04-07T03:44:18;97674.34;;;11.38;65.10
15489;BME280;7846;48.830;9.116;2023-04-07T03:47:02;97682.75;;;11.42;64.53
15489;BME280;7846;48.830;9.116;2023-04-07T03:49:46;97684.06;;;11.46;64.47
15489;BME280;7846;48.830;9.116;2023-04-07T03:52:30;97677.97;;;11.45;64.83
15489;BME280;7846;48.830;9.116;2023-04-07T03:55:14;97679.47;;;11.48;64.42
15489;BME280;7846;48.830;9.116;2023-04-07T03:57:58;97665.16;;;11.42;64.32
15489;BME280;7846;48.830;9.116;2023-04-07T04:00:43;97673.06;;;11.42;64.14
15489;BME280;7846;48.830;9.116;2023-04-07T04:03:27;97672.38;;;11.48;64.14
15489;BME280;7846;48.830;9.116;2023-04-07T04:06:11;97673.19;;;11.49;63.55
15489;BME280;7846;48.830;9.116;2023-04-07T04:08:56;97667.94;;;11.41;64.05
15489;BME280;7846;48.830;9.116;2023-04-07T04:11:40;97668.13;;;11.39;64.00
15489;BME280;7846;48.830;9.116;2023-04-07T04:14:24;97667.28;;;11.38;64.18
15489;BME280;7846;48.830;9.116;2023-04-07T04:17:09;97663.00;;;11.37;63.94
15489;BME280;7846;48.830;9.116;2023-04-07T04:19:53;97661.69;;;11.33;64.35
15489;BME280;7846;48.830;9.116;2023-04-07T04:22:38;97655.28;;;11.28;63.88
15489;BME280;7846;48.830;9.116;2023-04-07T04:25:40;97655.91;;;11.54;64.16
15489;BME280;7846;48.830;9.116;2023-04-07T04:28:24;97658.25;;;11.25;64.15
15489;BME280;7846;48.830;9.116;2023-04-07T04:31:08;97652.78;;;11.26;64.25
15489;BME280;7846;48.830;9.116;2023-04-07T04:33:52;97654.13;;;11.22;64.09
15489;BME280;7846;48.830;9.116;2023-04-07T04:36:36;97660.38;;;11.21;64.32
15489;BME280;7846;48.830;9.116;2023-04-07T04:39:21;97659.22;;;11.15;64.87
15489;BME280;7846;48.830;9.116;2023-04-07T04:42:06;97662.53;;;11.18;64.48
15489;BME280;7846;48.830;9.116;2023-04-07T04:44:51;97659.38;;;11.22;64.48
15489;BME280;7846;48.830;9.116;2023-04-07T04:47:36;97656.25;;;11.19;64.81
15489;BME280;7846;48.830;9.116;2023-04-07T04:50:22;97655.25;;;11.20;64.75
15489;BME280;7846;48.830;9.116;2023-04-07T04:53:07;97659.88;;;11.42;64.40
15489;BME280;7846;48.830;9.116;2023-04-07T04:55:55;97666.28;;;11.23;64.46
15489;BME280;7846;48.830;9.116;2023-04-07T04:58:39;97666.28;;;11.23;64.62
15489;BME280;7846;48.830;9.116;2023-04-07T05:01:24;97666.16;;;11.17;64.79
15489;BME280;7846;48.830;9.116;2023-04-07T05:04:08;97667.97;;;11.16;64.27
15489;BME280;7846;48.830;9.116;2023-04-07T05:06:54;97665.47;;;11.39;64.12
15489;BME280;7846;48.830;9.116;2023-04-07T05:09:38;97663.84;;;11.22;63.98
15489;BME280;7846;48.830;9.116;2023-04-07T05:12:22;97661.69;;;11.25;64.20
15489;BME280;7846;48.830;9.116;2023-04-07T05:15:09;97670.28;;;11.27;64.08
15489;BME280;7846;48.830;9.116;2023-04-07T05:17:53;97661.19;;;11.30;64.34
15489;BME280;7846;48.830;9.116;2023-04-07T05:20:38;97662.19;;;11.29;64.67
15489;BME280;7846;48.830;9.116;2023-04-07T05:23:22;97668.94;;;10.99;65.99
15489;BME280;7846;48.830;9.116;2023-04-07T05:26:06;97664.81;;;11.21;65.33
15489;BME280;7846;48.830;9.116;2023-04-07T05:28:50;97671.41;;;11.33;64.61
15489;BME280;7846;48.830;9.116;2023-04-07T05:31:35;97675.84;;;11.32;64.57
15489;BME280;7846;48.830;9.116;2023-04-07T05:34:25;97672.38;;;11.40;64.45
15489;BME280;7846;48.830;9.116;2023-04-07T05:37:09;97667.91;;;11.49;64.17
15489;BME280;7846;48.830;9.116;2023-04-07T05:39:53;97672.88;;;11.52;64.24
15489;BME280;7846;48.830;9.116;2023-04-07T05:42:39;97676.63;;;11.74;63.83
15489;BME280;7846;48.830;9.116;2023-04-07T05:45:24;97668.72;;;11.66;63.85
15489;BME280;7846;48.830;9.116;2023-04-07T05:48:08;97667.88;;;11.73;63.35
15489;BME280;7846;48.830;9.116;2023-04-07T05:50:52;97675.47;;;11.84;63.20
15489;BME280;7846;48.830;9.116;2023-04-07T05:53:36;97674.16;;;11.89;63.00
15489;BME280;7846;48.830;9.116;2023-04-07T05:56:22;97670.03;;;11.94;62.97
15489;BME280;7846;48.830;9.116;2023-04-07T05:59:06;97673.16;;;11.98;62.95
15489;BME280;7846;48.830;9.116;2023-04-07T06:01:50;97667.84;;;12.06;63.10
15489;BME280;7846;48.830;9.116;2023-04-07T06:04:35;97673.25;;;12.13;63.04
15489;BME280;7846;48.830;9.116;2023-04-07T06:07:19;97677.69;;;12.12;63.00
15489;BME280;7846;48.830;9.116;2023-04-07T06:10:05;97674.09;;;12.44;63.20
15489;BME280;7846;48.830;9.116;2023-04-07T06:12:49;97659.16;;;12.28;62.90
15489;BME280;7846;48.830;9.116;2023-04-07T06:15:33;97670.41;;;12.22;63.33
15489;BME280;7846;48.830;9.116;2023-04-07T06:18:17;97665.56;;;12.34;62.47
15489;BME280;7846;48.830;9.116;2023-04-07T06:21:01;97670.44;;;12.45;62.57
15489;BME280;7846;48.830;9.116;2023-04-07T06:23:45;97678.81;;;12.26;62.61
15489;BME280;7846;48.830;9.116;2023-04-07T06:26:33;97672.13;;;12.46;62.29
15489;BME280;7846;48.830;9.116;2023-04-07T06:29:17;97671.53;;;12.59;61.24
15489;BME280;7846;48.830;9.116;2023-04-07T06:32:01;97676.03;;;12.81;61.56
15489;BME280;7846;48.830;9.116;2023-04-07T06:34:46;97674.00;;;12.92;60.73
15489;BME280;7846;48.830;9.116;2023-04-07T06:37:30;97673.47;;;12.96;60.42
15489;BME280;7846;48.830;9.116;2023-04-07T06:40:14;97675.94;;;12.98;60.58
15489;BME280;7846;48.830;9.116;2023-04-07T06:42:58;97679.97;;;12.86;60.45
15489;BME280;7846;48.830;9.116;2023-04-07T06:45:42;97675.34;;;12.88;61.00
15489;BME280;7846;48.830;9.116;2023-04-07T06:48:27;97671.16;;;12.93;60.47
15489;BME280;7846;48.830;9.116;2023-04-07T06:51:11;97679.34;;;12.83;60.55
15489;BME280;7846;48.830;9.116;2023-04-07T06:53:55;97672.09;;;12.77;60.54
15489;BME280;7846;48.830;9.116;2023-04-07T06:56:41;97664.22;;;12.69;61.06
15489;BME280;7846;48.830;9.116;2023-04-07T06:59:25;97668.44;;;12.55;61.44
15489;BME280;7846;48.830;9.116;2023-04-07T07:02:09;97661.75;;;12.68;61.19
15489;BME280;7846;48.830;9.116;2023-04-07T07:04:53;97670.06;;;12.56;61.15
15489;BME280;7846;48.830;9.116;2023-04-07T07:07:37;97677.31;;;12.63;60.65
15489;BME280;7846;48.830;9.116;2023-04-07T07:10:21;97669.31;;;12.71;60.65
15489;BME280;7846;48.830;9.116;2023-04-07T07:13:06;97664.88;;;12.71;60.32
15489;BME280;7846;48.830;9.116;2023-04-07T07:15:50;97671.22;;;12.85;60.41
15489;BME280;7846;48.830;9.116;2023-04-07T07:18:35;97672.91;;;12.78;60.19
15489;BME280;7846;48.830;9.116;2023-04-07T07:21:19;97663.81;;;12.80;60.03
15489;BME280;7846;48.830;9.116;2023-04-07T07:24:05;97668.41;;;12.87;59.60
15489;BME280;7846;48.830;9.116;2023-04-07T07:26:49;97665.72;;;12.95;59.41
15489;BME280;7846;48.830;9.116;2023-04-07T07:29:33;97669.66;;;12.99;59.26
15489;BME280;7846;48.830;9.116;2023-04-07T07:32:19;97673.22;;;13.06;59.64
15489;BME280;7846;48.830;9.116;2023-04-07T07:35:04;97680.31;;;13.51;59.30
15489;BME280;7846;48.830;9.116;2023-04-07T07:37:48;97672.97;;;13.62;58.50
15489;BME280;7846;48.830;9.116;2023-04-07T07:40:33;97677.72;;;13.96;58.39
15489;BME280;7846;48.830;9.116;2023-04-07T07:43:16;97673.47;;;13.42;58.79
15489;BME280;7846;48.830;9.116;2023-04-07T07:46:00;97669.97;;;13.79;59.17
15489;BME280;7846;48.830;9.116;2023-04-07T07:48:44;97677.91;;;14.24;57.54
15489;BME280;7846;48.830;9.116;2023-04-07T07:51:30;97677.00;;;14.17;57.22
15489;BME280;7846;48.830;9.116;2023-04-07T07:54:13;97672.22;;;14.42;56.31
15489;BME280;7846;48.830;9.116;2023-04-07T07:56:57;97670.97;;;14.08;55.85
15489;BME280;7846;48.830;9.116;2023-04-07T07:59:42;97677.25;;;14.37;55.76
15489;BME280;7846;48.830;9.116;2023-04-07T08:02:26;97683.75;;;14.19;55.07
15489;BME280;7846;48.830;9.116;2023-04-07T08:05:13;97674.25;;;14.91;54.00
15489;BME280;7846;48.830;9.116;2023-04-07T08:07:58;97673.13;;;14.34;53.43
15489;BME280;7846;48.830;9.116;2023-04-07T08:10:43;97677.91;;;13.79;54.21
15489;BME280;7846;48.830;9.116;2023-04-07T08:13:27;97679.91;;;13.92;54.74
15489;BME280;7846;48.830;9.116;2023-04-07T08:16:11;97683.38;;;14.37;54.79
15489;BME280;7846;48.830;9.116;2023-04-07T08:18:57;97685.38;;;14.65;54.76
15489;BME280;7846;48.830;9.116;2023-04-07T08:21:41;97687.75;;;14.60;54.30
15489;BME280;7846;48.830;9.116;2023-04-07T08:24:27;97691.78;;;14.26;54.02
15489;BME280;7846;48.830;9.116;2023-04-07T08:27:11;97696.81;;;14.50;53.94
15489;BME280;7846;48.830;9.116;2023-04-07T08:30:00;97688.69;;;15.10;54.46
15489;BME280;7846;48.830;9.116;2023-04-07T08:32:44;97696.72;;;14.95;54.16
15489;BME280;7846;48.830;9.116;2023-04-07T08:35:29;97695.34;;;15.20;53.16
15489;BME280;7846;48.830;9.116;2023-04-07T08:38:13;97699.13;;;15.82;51.40
15489;BME280;7846;48.830;9.116;2023-04-07T08:41:05;97697.13;;;15.41;52.06
15489;BME280;7846;48.830;9.116;2023-04-07T08:43:51;97692.28;;;15.02;54.31
15489;BME280;7846;48.830;9.116;2023-04-07T08:46:37;97697.28;;;15.33;53.87
15489;BME280;7846;48.830;9.116;2023-04-07T08:49:25;97703.84;;;15.16;53.83
15489;BME280;7846;48.830;9.116;2023-04-07T08:52:13;97694.94;;;14.66;54.94
15489;BME280;7846;48.830;9.116;2023-04-07T08:54:59;97698.00;;;14.84;54.22
15489;BME280;7846;48.830;9.116;2023-04-07T08:57:45;97690.28;;;15.25;53.42
15489;BME280;7846;48.830;9.116;2023-04-07T09:00:30;97699.28;;;15.31;53.33
15489;BME280;7846;48.830;9.116;2023-04-07T09:03:15;97698.59;;;15.44;52.82
15489;BME280;7846;48.830;9.116;2023-04-07T09:06:01;97691.91;;;16.39;51.87
15489;BME280;7846;48.830;9.116;2023-04-07T09:08:45;97694.34;;;16.82;51.40
15489;BME280;7846;48.830;9.116;2023-04-07T09:11:29;97693.84;;;16.24;51.67
15489;BME280;7846;48.830;9.116;2023-04-07T09:14:14;97703.34;;;16.39;52.28
15489;BME280;7846;48.830;9.116;2023-04-07T09:17:01;97700.78;;;17.34;51.01
15489;BME280;7846;48.830;9.116;2023-04-07T09:19:47;97707.00;;;16.38;49.40
15489;BME280;7846;48.830;9.116;2023-04-07T09:22:34;97708.84;;;16.38;50.08
15489;BME280;7846;48.830;9.116;2023-04-07T09:25:23;97701.72;;;16.86;50.27
15489;BME280;7846;48.830;9.116;2023-04-07T09:28:09;97698.91;;;17.08;49.01
15489;BME280;7846;48.830;9.116;2023-04-07T09:30:56;97689.75;;;17.57;48.95
15489;BME280;7846;48.830;9.116;2023-04-07T09:33:41;97699.69;;;17.02;49.38
15489;BME280;7846;48.830;9.116;2023-04-07T09:36:28;97704.69;;;16.22;51.14
15489;BME280;7846;48.830;9.116;2023-04-07T09:39:16;97706.53;;;15.93;51.15
15489;BME280;7846;48.830;9.116;2023-04-07T09:42:05;97700.88;;;15.47;53.43
15489;BME280;7846;48.830;9.116;2023-04-07T09:44:49;97712.59;;;14.95;52.55
15489;BME280;7846;48.830;9.116;2023-04-07T09:47:33;97700.50;;;15.07;52.87
15489;BME280;7846;48.830;9.116;2023-04-07T09:50:30;97706.41;;;14.88;54.12
15489;BME280;7846;48.830;9.116;2023-04-07T09:53:17;97707.75;;;15.20;52.94
15489;BME280;7846;48.830;9.116;2023-04-07T09:56:05;97697.72;;;15.37;52.33
15489;BME280;7846;48.830;9.116;2023-04-07T09:58:49;97697.88;;;15.57;52.27
15489;BME280;7846;48.830;9.116;2023-04-07T10:01:37;97699.25;;;16.37;50.26
15489;BME280;7846;48.830;9.116;2023-04-07T10:04:23;97697.63;;;16.90;49.95
15489;BME280;7846;48.830;9.116;2023-04-07T10:07:07;97695.28;;;17.62;48.91
15489;BME280;7846;48.830;9.116;2023-04-07T10:09:52;97691.53;;;18.09;47.80
15489;BME280;7846;48.830;9.116;2023-04-07T10:12:37;97698.31;;;17.19;48.58
15489;BME280;7846;48.830;9.116;2023-04-07T10:15:21;97691.31;;;15.53;51.51
15489;BME280;7846;48.830;9.116;2023-04-07T10:18:06;97695.88;;;14.94;53.50
15489;BME280;7846;48.830;9.116;2023-04-07T10:20:52;97689.63;;;15.23;53.59
15489;BME280;7846;48.830;9.116;2023-04-07T10:23:57;97685.75;;;16.32;51.21
15489;BME280;7846;48.830;9.116;2023-04-07T10:26:42;97684.72;;;16.81;48.94
15489;BME280;7846;48.830;9.116;2023-04-07T10:29:39;97682.38;;;17.46;49.02
15489;BME280;7846;48.830;9.116;2023-04-07T10:32:24;97688.09;;;17.09;49.52
15489;BME280;7846;48.830;9.116;2023-04-07T10:35:08;97693.00;;;17.19;49.38
15489;BME280;7846;48.830;9.116;2023-04-07T10:40:57;97683.19;;;17.73;47.29
15489;BME280;7846;48.830;9.116;2023-04-07T10:43:41;97681.13;;;18.01;46.62
15489;BME280;7846;48.830;9.116;2023-04-07T10:47:01;97692.56;;;17.09;47.89
15489;BME280;7846;48.830;9.116;2023-04-07T10:50:22;97699.06;;;16.93;49.11
15489;BME280;7846;48.830;9.116;2023-04-07T10:53:08;97700.66;;;16.33;50.25
15489;BME280;7846;48.830;9.116;2023-04-07T10:55:54;97694.97;;;16.84;49.60
15489;BME280;7846;48.830;9.116;2023-04-07T10:58:39;97696.91;;;17.30;48.27
15489;BME280;7846;48.830;9.116;2023-04-07T11:01:25;97699.16;;;16.17;51.06
15489;BME280;7846;48.830;9.116;2023-04-07T11:04:10;97695.97;;;16.00;51.79
15489;BME280;7846;48.830;9.116;2023-04-07T11:06:55;97696.72;;;16.70;50.09
15489;BME280;7846;48.830;9.116;2023-04-07T11:09:41;97701.84;;;16.65;49.71
15489;BME280;7846;48.830;9.116;2023-04-07T11:12:25;97709.28;;;16.89;49.43
15489;BME280;7846;48.830;9.116;2023-04-07T11:15:18;97705.88;;;17.02;49.75
15489;BME280;7846;48.830;9.116;2023-04-07T11:18:10;97700.06;;;16.79;50.45
15489;BME280;7846;48.830;9.116;2023-04-07T11:20:56;97701.97;;;16.15;50.91
15489;BME280;7846;48.830;9.116;2023-04-07T11:23:42;97706.00;;;16.46;50.73
15489;BME280;7846;48.830;9.116;2023-04-07T11:26:26;97697.69;;;16.14;51.73
15489;BME280;7846;48.830;9.116;2023-04-07T11:29:10;97706.66;;;15.79;53.44
15489;BME280;7846;48.830;9.116;2023-04-07T11:31:57;97712.00;;;15.85;54.06
15489;BME280;7846;48.830;9.116;2023-04-07T11:34:42;97716.50;;;14.63;55.95
15489;BME280;7846;48.830;9.116;2023-04-07T11:37:26;97722.72;;;13.96;59.34
15489;BME280;7846;48.830;9.116;2023-04-07T11:40:11;97734.00;;;12.44;63.73
15489;BME280;7846;48.830;9.116;2023-04-07T11:42:59;97747.66;;;11.92;68.97
15489;BME280;7846;48.830;9.116;2023-04-07T11:46:01;97745.84;;;11.76;69.89
15489;BME280;7846;48.830;9.116;2023-04-07T11:48:45;97748.81;;;11.48;71.73
15489;BME280;7846;48.830;9.116;2023-04-07T11:51:33;97745.63;;;12.18;70.47
15489;BME280;7846;48.830;9.116;2023-04-07T11:54:17;97750.56;;;12.69;69.63
15489;BME280;7846;48.830;9.116;2023-04-07T11:57:01;97746.16;;;13.15;70.56
15489;BME280;7846;48.830;9.116;2023-04-07T11:59:45;97736.13;;;13.56;68.67
15489;BME280;7846;48.830;9.116;2023-04-07T12:02:33;97743.88;;;13.81;68.41
15489;BME280;7846;48.830;9.116;2023-04-07T12:05:17;97741.19;;;13.66;67.66
15489;BME280;7846;48.830;9.116;2023-04-07T12:08:01;97744.25;;;13.55;69.87
15489;BME280;7846;48.830;9.116;2023-04-07T12:10:46;97741.69;;;13.85;70.10
15489;BME280;7846;48.830;9.116;2023-04-07T12:13:30;97741.81;;;14.21;69.01
15489;BME280;7846;48.830;9.116;2023-04-07T12:16:16;97735.72;;;13.83;69.26
15489;BME280;7846;48.830;9.116;2023-04-07T12:19:03;97750.63;;;13.84;70.21
15489;BME280;7846;48.830;9.116;2023-04-07T12:21:47;97745.53;;;13.59;69.48
15489;BME280;7846;48.830;9.116;2023-04-07T12:24:32;97750.41;;;13.70;68.86
15489;BME280;7846;48.830;9.116;2023-04-07T12:27:15;97753.31;;;13.75;69.39
15489;BME280;7846;48.830;9.116;2023-04-07T12:30:04;97756.97;;;13.74;70.87
15489;BME280;7846;48.830;9.116;2023-04-07T12:32:48;97744.56;;;13.75;69.12
15489;BME280;7846;48.830;9.116;2023-04-07T12:35:32;97747.00;;;13.62;68.44
15489;BME280;7846;48.830;9.116;2023-04-07T12:38:16;97754.84;;;13.55;68.96
15489;BME280;7846;48.830;9.116;2023-04-07T12:41:00;97747.22;;;13.75;70.88
15489;BME280;7846;48.830;9.116;2023-04-07T12:43:46;97743.72;;;13.60;70.07
15489;BME280;7846;48.830;9.116;2023-04-07T12:46:31;97742.13;;;13.73;70.22
15489;BME280;7846;48.830;9.116;2023-04-07T12:49:16;97742.69;;;13.84;69.56
15489;BME280;7846;48.830;9.116;2023-04-07T12:51:59;97741.81;;;14.06;69.65
15489;BME280;7846;48.830;9.116;2023-04-07T12:54:44;97740.59;;;14.38;68.34
15489;BME280;7846;48.830;9.116;2023-04-07T12:57:27;97739.53;;;14.18;67.19
15489;BME280;7846;48.830;9.116;2023-04-07T13:00:12;97750.00;;;13.96;66.37
15489;BME280;7846;48.830;9.116;2023-04-07T13:02:57;97741.97;;;14.19;65.70
15489;BME280;7846;48.830;9.116;2023-04-07T13:05:41;97746.13;;;14.51;66.61
15489;BME280;7846;48.830;9.116;2023-04-07T13:08:26;97744.03;;;14.62;65.78
15489;BME280;7846;48.830;9.116;2023-04-07T13:11:10;97750.03;;;14.56;64.78
15489;BME280;7846;48.830;9.116;2023-04-07T13:13:54;97749.59;;;14.52;64.97
15489;BME280;7846;48.830;9.116;2023-04-07T13:16:38;97758.44;;;14.74;63.39
15489;BME280;7846;48.830;9.116;2023-04-07T13:19:22;97756.88;;;14.20;65.79
15489;BME280;7846;48.830;9.116;2023-04-07T13:22:06;97758.22;;;14.16;65.49
15489;BME280;7846;48.830;9.116;2023-04-07T13:24:50;97760.34;;;14.06;66.96
15489;BME280;7846;48.830;9.116;2023-04-07T13:27:34;97755.06;;;14.36;65.63
15489;BME280;7846;48.830;9.116;2023-04-07T13:30:19;97746.75;;;14.24;67.07
15489;BME280;7846;48.830;9.116;2023-04-07T13:33:03;97746.00;;;14.15;67.25
15489;BME280;7846;48.830;9.116;2023-04-07T13:35:47;97745.16;;;14.00;66.14
15489;BME280;7846;48.830;9.116;2023-04-07T13:38:33;97750.69;;;14.28;67.22
15489;BME280;7846;48.830;9.116;2023-04-07T13:41:17;97742.53;;;14.15;66.21
15489;BME280;7846;48.830;9.116;2023-04-07T13:44:01;97744.09;;;13.71;67.12
15489;BME280;7846;48.830;9.116;2023-04-07T13:46:48;97746.97;;;13.85;66.98
15489;BME280;7846;48.830;9.116;2023-04-07T13:49:31;97738.25;;;13.99;66.40
15489;BME280;7846;48.830;9.116;2023-04-07T13:52:16;97739.78;;;14.23;65.49
15489;BME280;7846;48.830;9.116;2023-04-07T13:55:01;97737.03;;;14.31;66.44
15489;BME280;7846;48.830;9.116;2023-04-07T13:57:47;97734.94;;;14.41;66.08
15489;BME280;7846;48.830;9.116;2023-04-07T14:00:31;97735.97;;;14.11;67.52
15489;BME280;7846;48.830;9.116;2023-04-07T14:03:15;97744.72;;;14.26;66.93
15489;BME280;7846;48.830;9.116;2023-04-07T14:05:59;97740.81;;;14.37;66.62
15489;BME280;7846;48.830;9.116;2023-04-07T14:08:44;97739.69;;;14.46;65.84
15489;BME280;7846;48.830;9.116;2023-04-07T14:11:28;97741.44;;;14.09;65.84
15489;BME280;7846;48.830;9.116;2023-04-07T14:14:13;97734.22;;;14.18;64.71
15489;BME280;7846;48.830;9.116;2023-04-07T14:17:01;97739.63;;;14.39;63.29
15489;BME280;7846;48.830;9.116;2023-04-07T14:19:45;97739.53;;;14.62;61.35
15489;BME280;7846;48.830;9.116;2023-04-07T14:22:42;97744.63;;;15.15;61.66
15489;BME280;7846;48.830;9.116;2023-04-07T14:25:26;97738.84;;;14.90;61.75
15489;BME280;7846;48.830;9.116;2023-04-07T14:28:10;97740.22;;;15.22;61.26
15489;BME280;7846;48.830;9.116;2023-04-07T14:30:54;97751.72;;;15.51;62.90
15489;BME280;7846;48.830;9.116;2023-04-07T14:33:37;97750.06;;;15.49;61.88
15489;BME280;7846;48.830;9.116;2023-04-07T14:36:22;97743.81;;;15.14;61.10
15489;BME280;7846;48.830;9.116;2023-04-07T14:39:06;97739.63;;;15.91;61.68
15489;BME280;7846;48.830;9.116;2023-04-07T14:41:51;97745.16;;;16.24;59.57
15489;BME280;7846;48.830;9.116;2023-04-07T14:44:35;97738.03;;;15.96;57.74
15489;BME280;7846;48.830;9.116;2023-04-07T14:47:20;97742.59;;;16.44;55.61
15489;BME280;7846;48.830;9.116;2023-04-07T14:50:04;97739.19;;;16.57;56.68